sensor_id;sensor_type;location;lat;lon;timestamp;temperature;humidity
53904;DHT22;39812;52.430;16.936;2022-09-13T00:00:05;11.30;99.90
53904;DHT22;39812;52.430;16.936;2022-09-13T00:02:31;11.20;99.90
53904;DHT22;39812;52.430;16.936;2022-09-13T00:04:56;11.10;99.90
53904;DHT22;39812;52.430;16.936;2022-09-13T00:07:22;11.00;99.90
53904;DHT22;39812;52.430;16.936;2022-09-13T00:09:48;11.00;99.90
53904;DHT22;39812;52.430;16.936;2022-09-13T00:12:14;10.90;99.90
53904;DHT22;39812;52.430;16.936;2022-09-13T00:14:39;10.90;99.90
53904;DHT22;39812;52.430;16.936;2022-09-13T00:17:05;10.90;99.90
53904;DHT22;39812;52.430;16.936;2022-09-13T00:19:30;11.00;99.90
53904;DHT22;39812;52.430;16.936;2022-09-13T00:21:56;11.10;99.90
53904;DHT22;39812;52.430;16.936;2022-09-13T00:24:21;11.20;99.90
53904;DHT22;39812;52.430;16.936;2022-09-13T00:26:47;11.40;99.90
53904;DHT22;39812;52.430;16.936;2022-09-13T00:29:12;11.50;99.90
53904;DHT22;39812;52.430;16.936;2022-09-13T00:31:37;11.50;99.90
53904;DHT22;39812;52.430;16.936;2022-09-13T00:34:03;11.50;99.90
53904;DHT22;39812;52.430;16.936;2022-09-13T00:36:28;11.40;99.90
53904;DHT22;39812;52.430;16.936;2022-09-13T00:38:54;11.40;99.90
53904;DHT22;39812;52.430;16.936;2022-09-13T00:41:20;11.50;99.90
53904;DHT22;39812;52.430;16.936;2022-09-13T00:43:49;11.40;99.90
53904;DHT22;39812;52.430;16.936;2022-09-13T00:49:21;11.40;99.90
53904;DHT22;39812;52.430;16.936;2022-09-13T00:51:55;11.40;99.90
53904;DHT22;39812;52.430;16.936;2022-09-13T00:54:24;11.40;99.90
53904;DHT22;39812;52.430;16.936;2022-09-13T00:56:54;11.40;99.90
53904;DHT22;39812;52.430;16.936;2022-09-13T00:59:38;11.40;99.90
53904;DHT22;39812;52.430;16.936;2022-09-13T01:02:04;11.40;99.90
53904;DHT22;39812;52.430;16.936;2022-09-13T01:04:31;11.40;99.90
53904;DHT22;39812;52.430;16.936;2022-09-13T01:07:01;11.40;99.90
53904;DHT22;39812;52.430;16.936;2022-09-13T01:09:28;11.40;99.90
53904;DHT22;39812;52.430;16.936;2022-09-13T01:14:52;11.40;99.90
53904;DHT22;39812;52.430;16.936;2022-09-13T01:17:18;11.30;99.90
53904;DHT22;39812;52.430;16.936;2022-09-13T01:19:44;11.20;99.90
53904;DHT22;39812;52.430;16.936;2022-09-13T01:22:54;11.20;99.90
53904;DHT22;39812;52.430;16.936;2022-09-13T01:25:49;11.30;99.90
53904;DHT22;39812;52.430;16.936;2022-09-13T01:29:04;11.30;99.90
53904;DHT22;39812;52.430;16.936;2022-09-13T01:31:47;11.40;99.90
53904;DHT22;39812;52.430;16.936;2022-09-13T01:37:30;11.50;99.90
53904;DHT22;39812;52.430;16.936;2022-09-13T01:40:40;11.50;99.90
53904;DHT22;39812;52.430;16.936;2022-09-13T01:43:22;11.50;99.90
53904;DHT22;39812;52.430;16.936;2022-09-13T01:46:01;11.60;99.90
53904;DHT22;39812;52.430;16.936;2022-09-13T01:51:34;11.50;99.90
53904;DHT22;39812;52.430;16.936;2022-09-13T01:54:20;11.40;99.90
53904;DHT22;39812;52.430;16.936;2022-09-13T01:59:47;11.00;99.90
53904;DHT22;39812;52.430;16.936;2022-09-13T02:02:19;10.80;99.90
53904;DHT22;39812;52.430;16.936;2022-09-13T02:04:49;10.70;99.90
53904;DHT22;39812;52.430;16.936;2022-09-13T02:07:30;10.70;99.90
53904;DHT22;39812;52.430;16.936;2022-09-13T02:10:02;10.80;99.90
53904;DHT22;39812;52.430;16.936;2022-09-13T02:12:33;10.90;99.90
53904;DHT22;39812;52.430;16.936;2022-09-13T02:15:11;11.00;99.90
53904;DHT22;39812;52.430;16.936;2022-09-13T02:17:44;11.00;99.90
53904;DHT22;39812;52.430;16.936;2022-09-13T02:20:23;11.00;99.90
53904;DHT22;39812;52.430;16.936;2022-09-13T02:22:54;11.00;99.90
53904;DHT22;39812;52.430;16.936;2022-09-13T02:25:22;11.00;99.90
53904;DHT22;39812;52.430;16.936;2022-09-13T02:27:51;11.00;99.90
53904;DHT22;39812;52.430;16.936;2022-09-13T02:30:18;11.00;99.90
53904;DHT22;39812;52.430;16.936;2022-09-13T02:33:07;11.00;99.90
53904;DHT22;39812;52.430;16.936;2022-09-13T02:35:50;11.10;99.90
53904;DHT22;39812;52.430;16.936;2022-09-13T02:38:35;11.10;99.90
53904;DHT22;39812;52.430;16.936;2022-09-13T02:41:24;11.20;99.90
53904;DHT22;39812;52.430;16.936;2022-09-13T02:44:18;11.30;99.90
53904;DHT22;39812;52.430;16.936;2022-09-13T02:47:23;11.20;99.90
53904;DHT22;39812;52.430;16.936;2022-09-13T02:55:46;11.20;99.90
53904;DHT22;39812;52.430;16.936;2022-09-13T02:58:24;11.00;99.90
53904;DHT22;39812;52.430;16.936;2022-09-13T03:00:51;11.00;99.90
53904;DHT22;39812;52.430;16.936;2022-09-13T03:03:17;10.90;99.90
53904;DHT22;39812;52.430;16.936;2022-09-13T03:05:42;10.90;99.90
53904;DHT22;39812;52.430;16.936;2022-09-13T03:08:10;11.10;99.90
53904;DHT22;39812;52.430;16.936;2022-09-13T03:10:57;11.00;99.90
53904;DHT22;39812;52.430;16.936;2022-09-13T03:20:01;11.00;99.90
53904;DHT22;39812;52.430;16.936;2022-09-13T03:25:22;11.10;99.90
53904;DHT22;39812;52.430;16.936;2022-09-13T03:28:05;11.10;99.90
53904;DHT22;39812;52.430;16.936;2022-09-13T03:30:37;11.10;99.90
53904;DHT22;39812;52.430;16.936;2022-09-13T03:33:29;11.00;99.90
53904;DHT22;39812;52.430;16.936;2022-09-13T03:36:15;11.10;99.90
53904;DHT22;39812;52.430;16.936;2022-09-13T03:38:55;11.00;99.90
53904;DHT22;39812;52.430;16.936;2022-09-13T03:41:30;11.00;99.90
53904;DHT22;39812;52.430;16.936;2022-09-13T03:44:00;11.10;99.90
53904;DHT22;39812;52.430;16.936;2022-09-13T03:46:30;11.00;99.90
53904;DHT22;39812;52.430;16.936;2022-09-13T03:49:05;11.00;99.90
53904;DHT22;39812;52.430;16.936;2022-09-13T03:51:31;11.10;99.90
53904;DHT22;39812;52.430;16.936;2022-09-13T03:54:01;11.00;99.90
53904;DHT22;39812;52.430;16.936;2022-09-13T03:56:27;11.00;99.90
53904;DHT22;39812;52.430;16.936;2022-09-13T03:58:53;11.00;99.90
53904;DHT22;39812;52.430;16.936;2022-09-13T04:01:20;11.10;99.90
53904;DHT22;39812;52.430;16.936;2022-09-13T04:03:46;11.10;99.90
53904;DHT22;39812;52.430;16.936;2022-09-13T04:06:12;11.00;99.90
53904;DHT22;39812;52.430;16.936;2022-09-13T04:08:38;11.00;99.90
53904;DHT22;39812;52.430;16.936;2022-09-13T04:11:03;11.00;99.90
53904;DHT22;39812;52.430;16.936;2022-09-13T04:13:29;10.90;99.90
53904;DHT22;39812;52.430;16.936;2022-09-13T04:16:00;10.90;99.90
53904;DHT22;39812;52.430;16.936;2022-09-13T04:18:27;10.90;99.90
53904;DHT22;39812;52.430;16.936;2022-09-13T04:20:54;10.80;99.90
53904;DHT22;39812;52.430;16.936;2022-09-13T04:23:20;10.80;99.90
53904;DHT22;39812;52.430;16.936;2022-09-13T04:25:46;10.80;99.90
53904;DHT22;39812;52.430;16.936;2022-09-13T04:28:11;10.80;99.90
53904;DHT22;39812;52.430;16.936;2022-09-13T04:30:36;10.80;99.90
53904;DHT22;39812;52.430;16.936;2022-09-13T04:33:02;10.90;99.90
53904;DHT22;39812;52.430;16.936;2022-09-13T04:35:27;10.90;99.90
53904;DHT22;39812;52.430;16.936;2022-09-13T04:37:56;11.00;99.90
53904;DHT22;39812;52.430;16.936;2022-09-13T04:40:23;11.00;99.90
53904;DHT22;39812;52.430;16.936;2022-09-13T04:42:48;11.10;99.90
53904;DHT22;39812;52.430;16.936;2022-09-13T04:45:14;11.20;99.90
53904;DHT22;39812;52.430;16.936;2022-09-13T04:47:39;11.20;99.90
53904;DHT22;39812;52.430;16.936;2022-09-13T04:50:05;11.30;99.90
53904;DHT22;39812;52.430;16.936;2022-09-13T04:52:31;11.40;99.90
53904;DHT22;39812;52.430;16.936;2022-09-13T04:54:57;11.40;99.90
53904;DHT22;39812;52.430;16.936;2022-09-13T04:57:26;11.40;99.90
53904;DHT22;39812;52.430;16.936;2022-09-13T04:59:51;11.40;99.90
53904;DHT22;39812;52.430;16.936;2022-09-13T05:02:17;11.50;99.90
53904;DHT22;39812;52.430;16.936;2022-09-13T05:04:42;11.60;99.90
53904;DHT22;39812;52.430;16.936;2022-09-13T05:07:08;11.60;99.90
53904;DHT22;39812;52.430;16.936;2022-09-13T05:09:33;11.70;99.90
53904;DHT22;39812;52.430;16.936;2022-09-13T05:11:59;11.80;99.90
53904;DHT22;39812;52.430;16.936;2022-09-13T05:14:24;11.80;99.90
53904;DHT22;39812;52.430;16.936;2022-09-13T05:16:50;11.80;99.90
53904;DHT22;39812;52.430;16.936;2022-09-13T05:19:15;11.90;99.90
53904;DHT22;39812;52.430;16.936;2022-09-13T05:21:41;11.80;99.90
53904;DHT22;39812;52.430;16.936;2022-09-13T05:24:06;11.90;99.90
53904;DHT22;39812;52.430;16.936;2022-09-13T05:26:32;11.90;99.90
53904;DHT22;39812;52.430;16.936;2022-09-13T05:28:58;11.80;99.90
53904;DHT22;39812;52.430;16.936;2022-09-13T05:31:30;11.80;99.90
53904;DHT22;39812;52.430;16.936;2022-09-13T05:33:58;11.80;99.90
53904;DHT22;39812;52.430;16.936;2022-09-13T05:36:24;11.90;99.90
53904;DHT22;39812;52.430;16.936;2022-09-13T05:38:54;12.10;99.90
53904;DHT22;39812;52.430;16.936;2022-09-13T05:41:19;12.10;99.90
53904;DHT22;39812;52.430;16.936;2022-09-13T05:43:45;12.20;99.90
53904;DHT22;39812;52.430;16.936;2022-09-13T05:46:13;12.20;99.90
53904;DHT22;39812;52.430;16.936;2022-09-13T05:48:39;12.40;99.90
53904;DHT22;39812;52.430;16.936;2022-09-13T05:53:39;12.70;99.90
53904;DHT22;39812;52.430;16.936;2022-09-13T05:56:09;12.80;99.90
53904;DHT22;39812;52.430;16.936;2022-09-13T05:58:40;13.00;99.90
53904;DHT22;39812;52.430;16.936;2022-09-13T06:01:06;13.00;99.90
53904;DHT22;39812;52.430;16.936;2022-09-13T06:03:32;13.30;99.90
53904;DHT22;39812;52.430;16.936;2022-09-13T06:05:58;13.30;99.90
53904;DHT22;39812;52.430;16.936;2022-09-13T06:08:25;13.50;99.90
53904;DHT22;39812;52.430;16.936;2022-09-13T06:11:05;13.80;99.90
53904;DHT22;39812;52.430;16.936;2022-09-13T06:13:31;14.20;99.90
53904;DHT22;39812;52.430;16.936;2022-09-13T06:15:59;14.50;99.90
53904;DHT22;39812;52.430;16.936;2022-09-13T06:18:25;14.80;99.90
53904;DHT22;39812;52.430;16.936;2022-09-13T06:21:00;15.00;99.90
53904;DHT22;39812;52.430;16.936;2022-09-13T06:23:26;15.10;99.90
53904;DHT22;39812;52.430;16.936;2022-09-13T06:26:19;15.30;99.90
53904;DHT22;39812;52.430;16.936;2022-09-13T06:28:50;15.30;99.90
53904;DHT22;39812;52.430;16.936;2022-09-13T06:31:17;15.50;99.90
53904;DHT22;39812;52.430;16.936;2022-09-13T06:33:43;15.80;99.90
53904;DHT22;39812;52.430;16.936;2022-09-13T06:36:15;15.80;99.90
53904;DHT22;39812;52.430;16.936;2022-09-13T06:38:42;15.90;99.90
53904;DHT22;39812;52.430;16.936;2022-09-13T06:41:13;16.00;99.90
53904;DHT22;39812;52.430;16.936;2022-09-13T06:43:39;16.20;99.90
53904;DHT22;39812;52.430;16.936;2022-09-13T06:46:07;16.20;99.90
53904;DHT22;39812;52.430;16.936;2022-09-13T06:48:35;16.40;99.90
53904;DHT22;39812;52.430;16.936;2022-09-13T06:51:03;16.30;99.90
53904;DHT22;39812;52.430;16.936;2022-09-13T06:53:29;16.20;99.90
53904;DHT22;39812;52.430;16.936;2022-09-13T06:58:32;16.30;99.90
53904;DHT22;39812;52.430;16.936;2022-09-13T07:01:13;16.20;99.90
53904;DHT22;39812;52.430;16.936;2022-09-13T07:03:41;16.30;99.90
53904;DHT22;39812;52.430;16.936;2022-09-13T07:06:08;16.40;99.90
53904;DHT22;39812;52.430;16.936;2022-09-13T07:08:34;16.40;99.90
53904;DHT22;39812;52.430;16.936;2022-09-13T07:11:00;16.30;99.90
53904;DHT22;39812;52.430;16.936;2022-09-13T07:13:26;16.30;99.90
53904;DHT22;39812;52.430;16.936;2022-09-13T07:15:51;16.20;99.90
53904;DHT22;39812;52.430;16.936;2022-09-13T07:18:17;16.20;99.90
53904;DHT22;39812;52.430;16.936;2022-09-13T07:20:42;16.20;99.90
53904;DHT22;39812;52.430;16.936;2022-09-13T07:23:08;16.30;99.90
53904;DHT22;39812;52.430;16.936;2022-09-13T07:25:33;16.30;99.90
53904;DHT22;39812;52.430;16.936;2022-09-13T07:27:58;16.50;99.90
53904;DHT22;39812;52.430;16.936;2022-09-13T07:30:24;16.80;99.90
53904;DHT22;39812;52.430;16.936;2022-09-13T07:32:51;17.10;99.90
53904;DHT22;39812;52.430;16.936;2022-09-13T07:35:16;17.30;99.90
53904;DHT22;39812;52.430;16.936;2022-09-13T07:37:41;17.40;99.90
53904;DHT22;39812;52.430;16.936;2022-09-13T07:40:09;17.60;99.90
53904;DHT22;39812;52.430;16.936;2022-09-13T07:42:35;17.50;99.90
53904;DHT22;39812;52.430;16.936;2022-09-13T07:45:00;17.60;99.90
53904;DHT22;39812;52.430;16.936;2022-09-13T07:47:26;17.90;99.90
53904;DHT22;39812;52.430;16.936;2022-09-13T07:49:51;18.00;99.90
53904;DHT22;39812;52.430;16.936;2022-09-13T07:52:17;18.20;99.90
53904;DHT22;39812;52.430;16.936;2022-09-13T07:54:42;18.20;99.90
53904;DHT22;39812;52.430;16.936;2022-09-13T07:57:08;18.40;99.90
53904;DHT22;39812;52.430;16.936;2022-09-13T07:59:33;18.60;99.90
53904;DHT22;39812;52.430;16.936;2022-09-13T08:01:59;18.80;99.90
53904;DHT22;39812;52.430;16.936;2022-09-13T08:04:24;19.10;99.90
53904;DHT22;39812;52.430;16.936;2022-09-13T08:06:50;19.20;99.90
53904;DHT22;39812;52.430;16.936;2022-09-13T08:09:16;19.30;99.90
53904;DHT22;39812;52.430;16.936;2022-09-13T08:11:47;19.50;99.90
53904;DHT22;39812;52.430;16.936;2022-09-13T08:14:16;19.60;99.90
53904;DHT22;39812;52.430;16.936;2022-09-13T08:16:42;19.60;99.90
53904;DHT22;39812;52.430;16.936;2022-09-13T08:19:12;19.70;99.90
53904;DHT22;39812;52.430;16.936;2022-09-13T08:21:39;20.00;99.90
53904;DHT22;39812;52.430;16.936;2022-09-13T08:24:07;20.00;99.90
53904;DHT22;39812;52.430;16.936;2022-09-13T08:26:37;20.20;99.90
53904;DHT22;39812;52.430;16.936;2022-09-13T08:29:09;20.30;99.90
53904;DHT22;39812;52.430;16.936;2022-09-13T08:31:41;20.30;99.90
53904;DHT22;39812;52.430;16.936;2022-09-13T08:34:09;20.30;99.90
53904;DHT22;39812;52.430;16.936;2022-09-13T08:36:36;20.40;99.90
53904;DHT22;39812;52.430;16.936;2022-09-13T08:39:01;20.40;99.90
53904;DHT22;39812;52.430;16.936;2022-09-13T08:44:38;20.60;99.90
53904;DHT22;39812;52.430;16.936;2022-09-13T08:47:26;20.40;99.90
53904;DHT22;39812;52.430;16.936;2022-09-13T08:50:10;20.70;99.90
53904;DHT22;39812;52.430;16.936;2022-09-13T08:53:07;20.70;99.90
53904;DHT22;39812;52.430;16.936;2022-09-13T08:58:42;20.10;99.90
53904;DHT22;39812;52.430;16.936;2022-09-13T09:04:29;19.60;99.90
53904;DHT22;39812;52.430;16.936;2022-09-13T09:09:38;19.50;99.90
53904;DHT22;39812;52.430;16.936;2022-09-13T09:12:18;19.70;99.90
53904;DHT22;39812;52.430;16.936;2022-09-13T09:14:58;19.90;99.90
53904;DHT22;39812;52.430;16.936;2022-09-13T09:17:33;20.30;99.90
53904;DHT22;39812;52.430;16.936;2022-09-13T09:23:19;20.80;99.90
53904;DHT22;39812;52.430;16.936;2022-09-13T09:25:46;21.10;99.40
53904;DHT22;39812;52.430;16.936;2022-09-13T09:28:14;21.10;99.10
53904;DHT22;39812;52.430;16.936;2022-09-13T09:30:58;21.10;98.70
53904;DHT22;39812;52.430;16.936;2022-09-13T09:39:11;19.90;99.90
53904;DHT22;39812;52.430;16.936;2022-09-13T09:41:37;19.60;99.90
53904;DHT22;39812;52.430;16.936;2022-09-13T09:46:37;19.00;99.90
53904;DHT22;39812;52.430;16.936;2022-09-13T09:49:14;18.80;99.90
53904;DHT22;39812;52.430;16.936;2022-09-13T09:52:02;18.70;99.90
53904;DHT22;39812;52.430;16.936;2022-09-13T09:54:33;18.90;99.90
53904;DHT22;39812;52.430;16.936;2022-09-13T09:56:59;18.90;99.90
53904;DHT22;39812;52.430;16.936;2022-09-13T09:59:27;18.90;99.90
53904;DHT22;39812;52.430;16.936;2022-09-13T10:01:54;19.00;99.90
53904;DHT22;39812;52.430;16.936;2022-09-13T10:04:22;19.30;99.90
53904;DHT22;39812;52.430;16.936;2022-09-13T10:06:48;19.50;99.90
53904;DHT22;39812;52.430;16.936;2022-09-13T10:09:19;19.90;99.90
53904;DHT22;39812;52.430;16.936;2022-09-13T10:11:53;20.60;99.90
53904;DHT22;39812;52.430;16.936;2022-09-13T10:14:29;21.10;99.90
53904;DHT22;39812;52.430;16.936;2022-09-13T10:17:13;21.60;99.10
53904;DHT22;39812;52.430;16.936;2022-09-13T10:19:41;21.90;98.70
53904;DHT22;39812;52.430;16.936;2022-09-13T10:22:15;22.10;97.90
53904;DHT22;39812;52.430;16.936;2022-09-13T10:24:41;21.70;98.40
53904;DHT22;39812;52.430;16.936;2022-09-13T10:27:24;21.60;98.30
53904;DHT22;39812;52.430;16.936;2022-09-13T10:29:52;22.00;98.70
53904;DHT22;39812;52.430;16.936;2022-09-13T10:32:20;22.20;98.10
53904;DHT22;39812;52.430;16.936;2022-09-13T10:34:47;22.30;97.50
53904;DHT22;39812;52.430;16.936;2022-09-13T10:37:16;21.90;97.80
53904;DHT22;39812;52.430;16.936;2022-09-13T10:40:04;21.30;98.90
53904;DHT22;39812;52.430;16.936;2022-09-13T10:42:32;21.40;99.00
53904;DHT22;39812;52.430;16.936;2022-09-13T10:45:06;21.60;98.50
53904;DHT22;39812;52.430;16.936;2022-09-13T10:47:33;21.40;98.70
53904;DHT22;39812;52.430;16.936;2022-09-13T10:50:20;21.10;99.10
53904;DHT22;39812;52.430;16.936;2022-09-13T10:52:51;21.10;99.10
53904;DHT22;39812;52.430;16.936;2022-09-13T11:00:15;21.20;99.00
53904;DHT22;39812;52.430;16.936;2022-09-13T11:02:53;20.40;99.60
53904;DHT22;39812;52.430;16.936;2022-09-13T11:05:44;20.30;99.90
53904;DHT22;39812;52.430;16.936;2022-09-13T11:08:20;20.00;99.90
53904;DHT22;39812;52.430;16.936;2022-09-13T11:10:53;20.00;99.90
53904;DHT22;39812;52.430;16.936;2022-09-13T11:19:11;19.50;99.90
53904;DHT22;39812;52.430;16.936;2022-09-13T11:30:22;19.40;99.90
53904;DHT22;39812;52.430;16.936;2022-09-13T11:35:29;19.60;99.90
53904;DHT22;39812;52.430;16.936;2022-09-13T11:38:31;19.70;99.90
53904;DHT22;39812;52.430;16.936;2022-09-13T11:41:12;20.00;99.90
53904;DHT22;39812;52.430;16.936;2022-09-13T11:43:49;20.20;99.90
53904;DHT22;39812;52.430;16.936;2022-09-13T11:49:47;20.30;99.90
53904;DHT22;39812;52.430;16.936;2022-09-13T11:52:56;20.40;99.90
53904;DHT22;39812;52.430;16.936;2022-09-13T11:55:28;20.40;99.90
53904;DHT22;39812;52.430;16.936;2022-09-13T11:57:57;20.40;99.90
53904;DHT22;39812;52.430;16.936;2022-09-13T12:00:34;20.60;99.90
53904;DHT22;39812;52.430;16.936;2022-09-13T12:03:42;20.70;99.90
53904;DHT22;39812;52.430;16.936;2022-09-13T12:06:20;20.80;99.90
53904;DHT22;39812;52.430;16.936;2022-09-13T12:08:49;20.70;99.90
53904;DHT22;39812;52.430;16.936;2022-09-13T12:11:41;20.50;99.90
53904;DHT22;39812;52.430;16.936;2022-09-13T12:14:14;20.30;99.90
53904;DHT22;39812;52.430;16.936;2022-09-13T12:16:44;20.20;99.90
53904;DHT22;39812;52.430;16.936;2022-09-13T12:19:17;20.20;99.90
53904;DHT22;39812;52.430;16.936;2022-09-13T12:21:46;20.10;99.90
53904;DHT22;39812;52.430;16.936;2022-09-13T12:24:27;20.00;99.90
53904;DHT22;39812;52.430;16.936;2022-09-13T12:30:17;19.20;99.90
53904;DHT22;39812;52.430;16.936;2022-09-13T12:32:45;18.90;99.90
53904;DHT22;39812;52.430;16.936;2022-09-13T12:35:28;18.90;99.90
53904;DHT22;39812;52.430;16.936;2022-09-13T12:38:24;19.20;99.90
53904;DHT22;39812;52.430;16.936;2022-09-13T12:47:08;19.70;99.90
53904;DHT22;39812;52.430;16.936;2022-09-13T12:52:48;19.80;99.90
53904;DHT22;39812;52.430;16.936;2022-09-13T12:58:42;20.20;99.90
53904;DHT22;39812;52.430;16.936;2022-09-13T13:01:23;20.20;99.90
53904;DHT22;39812;52.430;16.936;2022-09-13T13:03:53;20.30;99.90
53904;DHT22;39812;52.430;16.936;2022-09-13T13:06:30;20.20;99.90
53904;DHT22;39812;52.430;16.936;2022-09-13T13:08:59;20.10;99.90
53904;DHT22;39812;52.430;16.936;2022-09-13T13:11:28;20.30;99.90
53904;DHT22;39812;52.430;16.936;2022-09-13T13:14:02;20.40;99.90
53904;DHT22;39812;52.430;16.936;2022-09-13T13:16:40;20.80;99.90
53904;DHT22;39812;52.430;16.936;2022-09-13T13:19:33;21.20;99.90
53904;DHT22;39812;52.430;16.936;2022-09-13T13:25:30;21.90;99.50
53904;DHT22;39812;52.430;16.936;2022-09-13T13:27:55;22.40;98.80
53904;DHT22;39812;52.430;16.936;2022-09-13T13:33:15;22.20;98.40
53904;DHT22;39812;52.430;16.936;2022-09-13T13:35:41;22.00;98.50
53904;DHT22;39812;52.430;16.936;2022-09-13T13:38:38;21.60;98.60
53904;DHT22;39812;52.430;16.936;2022-09-13T13:41:35;21.20;99.40
53904;DHT22;39812;52.430;16.936;2022-09-13T13:46:51;20.80;99.80
53904;DHT22;39812;52.430;16.936;2022-09-13T13:57:33;21.70;98.90
53904;DHT22;39812;52.430;16.936;2022-09-13T14:00:20;22.10;98.30
53904;DHT22;39812;52.430;16.936;2022-09-13T14:05:37;21.50;97.90
53904;DHT22;39812;52.430;16.936;2022-09-13T14:11:31;20.40;99.40
53904;DHT22;39812;52.430;16.936;2022-09-13T14:17:20;20.30;99.90
53904;DHT22;39812;52.430;16.936;2022-09-13T14:19:52;20.50;99.90
53904;DHT22;39812;52.430;16.936;2022-09-13T14:22:24;20.50;99.90
53904;DHT22;39812;52.430;16.936;2022-09-13T14:24:55;20.40;99.90
53904;DHT22;39812;52.430;16.936;2022-09-13T14:27:33;20.20;99.90
53904;DHT22;39812;52.430;16.936;2022-09-13T14:30:16;19.90;99.90
53904;DHT22;39812;52.430;16.936;2022-09-13T14:32:45;19.90;99.90
53904;DHT22;39812;52.430;16.936;2022-09-13T14:35:34;19.70;99.90
53904;DHT22;39812;52.430;16.936;2022-09-13T14:38:20;19.60;99.90
53904;DHT22;39812;52.430;16.936;2022-09-13T14:40:48;19.90;99.90
53904;DHT22;39812;52.430;16.936;2022-09-13T14:43:17;21.10;99.90
53904;DHT22;39812;52.430;16.936;2022-09-13T14:45:45;21.40;99.90
53904;DHT22;39812;52.430;16.936;2022-09-13T14:48:41;21.80;99.70
53904;DHT22;39812;52.430;16.936;2022-09-13T14:51:19;21.80;99.40
53904;DHT22;39812;52.430;16.936;2022-09-13T14:53:48;22.10;99.10
53904;DHT22;39812;52.430;16.936;2022-09-13T14:56:34;21.80;99.20
53904;DHT22;39812;52.430;16.936;2022-09-13T14:59:04;21.20;99.90
53904;DHT22;39812;52.430;16.936;2022-09-13T15:01:36;20.40;99.90
53904;DHT22;39812;52.430;16.936;2022-09-13T15:04:02;20.00;99.90
53904;DHT22;39812;52.430;16.936;2022-09-13T15:06:36;19.70;99.90
53904;DHT22;39812;52.430;16.936;2022-09-13T15:11:38;19.50;99.90
53904;DHT22;39812;52.430;16.936;2022-09-13T15:14:35;19.50;99.90
53904;DHT22;39812;52.430;16.936;2022-09-13T15:17:10;19.50;99.90
53904;DHT22;39812;52.430;16.936;2022-09-13T15:19:47;19.30;99.90
53904;DHT22;39812;52.430;16.936;2022-09-13T15:22:18;19.30;99.90
53904;DHT22;39812;52.430;16.936;2022-09-13T15:24:47;19.00;99.90
53904;DHT22;39812;52.430;16.936;2022-09-13T15:27:19;18.90;99.90
53904;DHT22;39812;52.430;16.936;2022-09-13T15:29:50;18.60;99.90
53904;DHT22;39812;52.430;16.936;2022-09-13T15:32:22;18.60;99.90
53904;DHT22;39812;52.430;16.936;2022-09-13T15:34:49;18.60;99.90
53904;DHT22;39812;52.430;16.936;2022-09-13T15:37:15;18.60;99.90
53904;DHT22;39812;52.430;16.936;2022-09-13T15:39:45;18.60;99.90
53904;DHT22;39812;52.430;16.936;2022-09-13T15:42:12;18.60;99.90
53904;DHT22;39812;52.430;16.936;2022-09-13T15:44:37;18.60;99.90
53904;DHT22;39812;52.430;16.936;2022-09-13T15:47:10;18.50;99.90
53904;DHT22;39812;52.430;16.936;2022-09-13T15:49:37;18.50;99.90
53904;DHT22;39812;52.430;16.936;2022-09-13T15:52:04;18.50;99.90
53904;DHT22;39812;52.430;16.936;2022-09-13T15:54:34;18.40;99.90
53904;DHT22;39812;52.430;16.936;2022-09-13T15:57:00;18.40;99.90
53904;DHT22;39812;52.430;16.936;2022-09-13T15:59:25;18.20;99.90
53904;DHT22;39812;52.430;16.936;2022-09-13T16:01:51;18.20;99.90
53904;DHT22;39812;52.430;16.936;2022-09-13T16:04:18;18.00;99.90
53904;DHT22;39812;52.430;16.936;2022-09-13T16:06:44;17.70;99.90
53904;DHT22;39812;52.430;16.936;2022-09-13T16:09:29;17.50;99.90
53904;DHT22;39812;52.430;16.936;2022-09-13T16:11:55;17.30;99.90
53904;DHT22;39812;52.430;16.936;2022-09-13T16:14:21;17.30;99.90
53904;DHT22;39812;52.430;16.936;2022-09-13T16:16:46;17.20;99.90
53904;DHT22;39812;52.430;16.936;2022-09-13T16:19:18;17.20;99.90
53904;DHT22;39812;52.430;16.936;2022-09-13T16:21:43;17.20;99.90
53904;DHT22;39812;52.430;16.936;2022-09-13T16:24:09;17.10;99.90
53904;DHT22;39812;52.430;16.936;2022-09-13T16:26:35;17.10;99.90
53904;DHT22;39812;52.430;16.936;2022-09-13T16:29:01;17.10;99.90
53904;DHT22;39812;52.430;16.936;2022-09-13T16:31:26;17.10;99.90
53904;DHT22;39812;52.430;16.936;2022-09-13T16:33:51;17.00;99.90
53904;DHT22;39812;52.430;16.936;2022-09-13T16:36:17;17.00;99.90
53904;DHT22;39812;52.430;16.936;2022-09-13T16:38:43;16.90;99.90
53904;DHT22;39812;52.430;16.936;2022-09-13T16:41:08;16.90;99.90
53904;DHT22;39812;52.430;16.936;2022-09-13T16:43:34;16.70;99.90
53904;DHT22;39812;52.430;16.936;2022-09-13T16:46:08;16.50;99.90
53904;DHT22;39812;52.430;16.936;2022-09-13T16:48:34;16.30;99.90
53904;DHT22;39812;52.430;16.936;2022-09-13T16:51:07;16.20;99.90
53904;DHT22;39812;52.430;16.936;2022-09-13T16:53:35;16.00;99.90
53904;DHT22;39812;52.430;16.936;2022-09-13T16:56:08;16.00;99.90
53904;DHT22;39812;52.430;16.936;2022-09-13T16:58:39;15.90;99.90
53904;DHT22;39812;52.430;16.936;2022-09-13T17:01:09;15.90;99.90
53904;DHT22;39812;52.430;16.936;2022-09-13T17:03:36;15.90;99.90
53904;DHT22;39812;52.430;16.936;2022-09-13T17:06:05;15.90;99.90
53904;DHT22;39812;52.430;16.936;2022-09-13T17:08:31;15.90;99.90
53904;DHT22;39812;52.430;16.936;2022-09-13T17:10:57;15.80;99.90
53904;DHT22;39812;52.430;16.936;2022-09-13T17:13:23;15.90;99.90
53904;DHT22;39812;52.430;16.936;2022-09-13T17:15:49;15.90;99.90
53904;DHT22;39812;52.430;16.936;2022-09-13T17:18:15;15.90;99.90
53904;DHT22;39812;52.430;16.936;2022-09-13T17:20:47;15.80;99.90
53904;DHT22;39812;52.430;16.936;2022-09-13T17:23:13;15.80;99.90
53904;DHT22;39812;52.430;16.936;2022-09-13T17:25:44;15.80;99.90
53904;DHT22;39812;52.430;16.936;2022-09-13T17:28:17;15.80;99.90
53904;DHT22;39812;52.430;16.936;2022-09-13T17:30:44;15.70;99.90
53904;DHT22;39812;52.430;16.936;2022-09-13T17:33:11;15.70;99.90
53904;DHT22;39812;52.430;16.936;2022-09-13T17:35:36;15.70;99.90
53904;DHT22;39812;52.430;16.936;2022-09-13T17:38:02;15.70;99.90
53904;DHT22;39812;52.430;16.936;2022-09-13T17:40:28;15.70;99.90
53904;DHT22;39812;52.430;16.936;2022-09-13T17:42:55;15.80;99.90
53904;DHT22;39812;52.430;16.936;2022-09-13T17:45:21;15.80;99.90
53904;DHT22;39812;52.430;16.936;2022-09-13T17:47:47;15.80;99.90
53904;DHT22;39812;52.430;16.936;2022-09-13T17:50:13;15.90;99.90